sensor_id;sensor_type;location;lat;lon;timestamp;P1;durP1;ratioP1;P2;durP2;ratioP2
22565;SDS011;11449;51.330;19.378;2022-07-23T00:01:04;28.30;;;18.27;;
22565;SDS011;11449;51.330;19.378;2022-07-23T00:06:06;31.85;;;19.67;;
22565;SDS011;11449;51.330;19.378;2022-07-23T00:11:07;28.47;;;17.48;;
22565;SDS011;11449;51.330;19.378;2022-07-23T00:16:09;23.55;;;17.60;;
22565;SDS011;11449;51.330;19.378;2022-07-23T00:21:10;32.35;;;21.45;;
22565;SDS011;11449;51.330;19.378;2022-07-23T00:26:11;32.67;;;21.80;;
22565;SDS011;11449;51.330;19.378;2022-07-23T00:31:13;28.35;;;20.77;;
22565;SDS011;11449;51.330;19.378;2022-07-23T00:36:14;24.98;;;18.60;;
22565;SDS011;11449;51.330;19.378;2022-07-23T00:41:16;25.65;;;19.25;;
22565;SDS011;11449;51.330;19.378;2022-07-23T00:46:21;23.87;;;18.20;;
22565;SDS011;11449;51.330;19.378;2022-07-23T00:51:23;24.98;;;19.57;;
22565;SDS011;11449;51.330;19.378;2022-07-23T00:56:24;34.23;;;19.20;;
22565;SDS011;11449;51.330;19.378;2022-07-23T01:01:25;27.40;;;19.75;;
22565;SDS011;11449;51.330;19.378;2022-07-23T01:06:26;27.13;;;19.42;;
22565;SDS011;11449;51.330;19.378;2022-07-23T01:11:28;26.35;;;17.37;;
22565;SDS011;11449;51.330;19.378;2022-07-23T01:16:30;21.35;;;16.00;;
22565;SDS011;11449;51.330;19.378;2022-07-23T01:21:33;21.27;;;16.55;;
22565;SDS011;11449;51.330;19.378;2022-07-23T01:26:41;26.42;;;18.00;;
22565;SDS011;11449;51.330;19.378;2022-07-23T01:31:44;25.27;;;19.40;;
22565;SDS011;11449;51.330;19.378;2022-07-23T01:36:45;30.97;;;20.20;;
22565;SDS011;11449;51.330;19.378;2022-07-23T01:41:49;25.20;;;17.37;;
22565;SDS011;11449;51.330;19.378;2022-07-23T01:46:50;21.52;;;16.45;;
22565;SDS011;11449;51.330;19.378;2022-07-23T01:51:53;26.02;;;19.42;;
22565;SDS011;11449;51.330;19.378;2022-07-23T01:57:12;25.48;;;18.98;;
22565;SDS011;11449;51.330;19.378;2022-07-23T02:02:14;28.25;;;20.60;;
22565;SDS011;11449;51.330;19.378;2022-07-23T02:07:15;30.02;;;21.60;;
22565;SDS011;11449;51.330;19.378;2022-07-23T02:12:16;24.05;;;16.93;;
22565;SDS011;11449;51.330;19.378;2022-07-23T02:17:18;21.50;;;16.65;;
22565;SDS011;11449;51.330;19.378;2022-07-23T02:22:20;21.52;;;15.78;;
22565;SDS011;11449;51.330;19.378;2022-07-23T02:27:23;21.25;;;15.75;;
22565;SDS011;11449;51.330;19.378;2022-07-23T02:32:24;25.30;;;17.27;;
22565;SDS011;11449;51.330;19.378;2022-07-23T02:37:25;23.75;;;17.30;;
22565;SDS011;11449;51.330;19.378;2022-07-23T02:42:27;26.57;;;18.15;;
22565;SDS011;11449;51.330;19.378;2022-07-23T02:47:28;23.45;;;17.32;;
22565;SDS011;11449;51.330;19.378;2022-07-23T02:52:31;26.37;;;17.50;;
22565;SDS011;11449;51.330;19.378;2022-07-23T02:57:32;30.57;;;19.95;;
22565;SDS011;11449;51.330;19.378;2022-07-23T03:02:34;34.75;;;19.50;;
22565;SDS011;11449;51.330;19.378;2022-07-23T03:07:35;39.73;;;23.98;;
22565;SDS011;11449;51.330;19.378;2022-07-23T03:12:38;48.55;;;21.62;;
22565;SDS011;11449;51.330;19.378;2022-07-23T03:17:39;72.30;;;21.27;;
22565;SDS011;11449;51.330;19.378;2022-07-23T03:22:40;62.13;;;19.17;;
22565;SDS011;11449;51.330;19.378;2022-07-23T03:27:42;63.50;;;19.17;;
22565;SDS011;11449;51.330;19.378;2022-07-23T03:32:43;59.42;;;19.15;;
22565;SDS011;11449;51.330;19.378;2022-07-23T03:37:45;61.37;;;20.40;;
22565;SDS011;11449;51.330;19.378;2022-07-23T03:42:46;67.50;;;20.17;;
22565;SDS011;11449;51.330;19.378;2022-07-23T03:47:48;49.85;;;18.17;;
22565;SDS011;11449;51.330;19.378;2022-07-23T03:52:49;67.32;;;19.45;;
22565;SDS011;11449;51.330;19.378;2022-07-23T03:57:50;61.60;;;18.42;;
22565;SDS011;11449;51.330;19.378;2022-07-23T04:02:51;58.50;;;18.23;;
22565;SDS011;11449;51.330;19.378;2022-07-23T04:07:53;68.17;;;20.55;;
22565;SDS011;11449;51.330;19.378;2022-07-23T04:12:54;64.65;;;19.87;;
22565;SDS011;11449;51.330;19.378;2022-07-23T04:17:55;67.97;;;22.00;;
22565;SDS011;11449;51.330;19.378;2022-07-23T04:22:58;70.30;;;21.95;;
22565;SDS011;11449;51.330;19.378;2022-07-23T04:28:01;63.87;;;19.25;;
22565;SDS011;11449;51.330;19.378;2022-07-23T04:33:03;62.67;;;19.60;;
22565;SDS011;11449;51.330;19.378;2022-07-23T04:38:06;65.05;;;21.23;;
22565;SDS011;11449;51.330;19.378;2022-07-23T04:43:08;75.70;;;21.10;;
22565;SDS011;11449;51.330;19.378;2022-07-23T04:48:11;56.98;;;20.57;;
22565;SDS011;11449;51.330;19.378;2022-07-23T04:53:13;51.70;;;19.60;;
22565;SDS011;11449;51.330;19.378;2022-07-23T04:58:15;42.95;;;18.85;;
22565;SDS011;11449;51.330;19.378;2022-07-23T05:03:16;64.80;;;20.92;;
22565;SDS011;11449;51.330;19.378;2022-07-23T05:08:19;62.55;;;20.75;;
22565;SDS011;11449;51.330;19.378;2022-07-23T05:13:23;69.12;;;20.90;;
22565;SDS011;11449;51.330;19.378;2022-07-23T05:18:25;72.32;;;21.35;;
22565;SDS011;11449;51.330;19.378;2022-07-23T05:23:27;78.28;;;22.13;;
22565;SDS011;11449;51.330;19.378;2022-07-23T05:28:29;70.00;;;19.02;;
22565;SDS011;11449;51.330;19.378;2022-07-23T05:33:30;62.98;;;19.55;;
22565;SDS011;11449;51.330;19.378;2022-07-23T05:38:32;62.23;;;18.30;;
22565;SDS011;11449;51.330;19.378;2022-07-23T05:43:33;57.20;;;18.10;;
22565;SDS011;11449;51.330;19.378;2022-07-23T05:48:37;71.87;;;20.50;;
22565;SDS011;11449;51.330;19.378;2022-07-23T05:53:40;54.10;;;19.05;;
22565;SDS011;11449;51.330;19.378;2022-07-23T05:58:43;56.83;;;18.32;;
22565;SDS011;11449;51.330;19.378;2022-07-23T06:03:46;57.95;;;18.67;;
22565;SDS011;11449;51.330;19.378;2022-07-23T06:08:47;55.35;;;16.93;;
22565;SDS011;11449;51.330;19.378;2022-07-23T06:13:49;66.35;;;18.30;;
22565;SDS011;11449;51.330;19.378;2022-07-23T06:18:51;68.17;;;17.37;;
22565;SDS011;11449;51.330;19.378;2022-07-23T06:23:53;60.95;;;17.10;;
22565;SDS011;11449;51.330;19.378;2022-07-23T06:28:55;65.45;;;16.70;;
22565;SDS011;11449;51.330;19.378;2022-07-23T06:33:56;80.87;;;18.42;;
22565;SDS011;11449;51.330;19.378;2022-07-23T06:38:57;82.95;;;32.53;;
22565;SDS011;11449;51.330;19.378;2022-07-23T06:43:59;74.03;;;22.50;;
22565;SDS011;11449;51.330;19.378;2022-07-23T06:49:01;75.37;;;27.40;;
22565;SDS011;11449;51.330;19.378;2022-07-23T06:54:04;27.15;;;12.95;;
22565;SDS011;11449;51.330;19.378;2022-07-23T06:59:06;27.42;;;13.40;;
22565;SDS011;11449;51.330;19.378;2022-07-23T07:04:08;22.35;;;11.90;;
22565;SDS011;11449;51.330;19.378;2022-07-23T07:09:09;21.12;;;12.60;;
22565;SDS011;11449;51.330;19.378;2022-07-23T07:14:10;21.45;;;12.03;;
22565;SDS011;11449;51.330;19.378;2022-07-23T07:19:12;21.15;;;11.55;;
22565;SDS011;11449;51.330;19.378;2022-07-23T07:24:13;20.27;;;11.90;;
22565;SDS011;11449;51.330;19.378;2022-07-23T07:29:14;22.73;;;11.30;;
22565;SDS011;11449;51.330;19.378;2022-07-23T07:34:15;20.27;;;11.50;;
22565;SDS011;11449;51.330;19.378;2022-07-23T07:39:17;22.60;;;12.55;;
22565;SDS011;11449;51.330;19.378;2022-07-23T07:44:18;24.35;;;12.07;;
22565;SDS011;11449;51.330;19.378;2022-07-23T07:49:19;20.10;;;12.53;;
22565;SDS011;11449;51.330;19.378;2022-07-23T07:54:20;22.40;;;11.65;;
22565;SDS011;11449;51.330;19.378;2022-07-23T07:59:22;25.20;;;13.62;;
22565;SDS011;11449;51.330;19.378;2022-07-23T08:04:23;21.87;;;12.15;;
22565;SDS011;11449;51.330;19.378;2022-07-23T08:09:24;21.30;;;11.65;;
22565;SDS011;11449;51.330;19.378;2022-07-23T08:14:25;14.90;;;10.48;;
22565;SDS011;11449;51.330;19.378;2022-07-23T08:19:26;14.53;;;10.45;;
22565;SDS011;11449;51.330;19.378;2022-07-23T08:24:27;12.47;;;9.83;;
22565;SDS011;11449;51.330;19.378;2022-07-23T08:29:29;11.60;;;8.60;;
22565;SDS011;11449;51.330;19.378;2022-07-23T08:34:30;11.85;;;9.55;;
22565;SDS011;11449;51.330;19.378;2022-07-23T08:39:31;10.08;;;9.05;;
22565;SDS011;11449;51.330;19.378;2022-07-23T08:44:33;10.75;;;8.73;;
22565;SDS011;11449;51.330;19.378;2022-07-23T08:49:36;11.73;;;9.50;;
22565;SDS011;11449;51.330;19.378;2022-07-23T08:54:38;10.82;;;9.55;;
22565;SDS011;11449;51.330;19.378;2022-07-23T08:59:40;10.40;;;9.13;;
22565;SDS011;11449;51.330;19.378;2022-07-23T09:04:42;14.10;;;9.60;;
22565;SDS011;11449;51.330;19.378;2022-07-23T09:09:43;12.20;;;9.55;;
22565;SDS011;11449;51.330;19.378;2022-07-23T09:14:44;10.45;;;9.10;;
22565;SDS011;11449;51.330;19.378;2022-07-23T09:19:49;13.88;;;9.78;;
22565;SDS011;11449;51.330;19.378;2022-07-23T09:25:13;10.38;;;9.10;;
22565;SDS011;11449;51.330;19.378;2022-07-23T09:30:14;16.65;;;11.63;;
22565;SDS011;11449;51.330;19.378;2022-07-23T09:35:16;13.50;;;9.65;;
22565;SDS011;11449;51.330;19.378;2022-07-23T09:40:17;14.25;;;9.98;;
22565;SDS011;11449;51.330;19.378;2022-07-23T09:45:18;14.60;;;10.48;;
22565;SDS011;11449;51.330;19.378;2022-07-23T09:50:20;15.38;;;10.50;;
22565;SDS011;11449;51.330;19.378;2022-07-23T09:55:21;20.77;;;11.73;;
22565;SDS011;11449;51.330;19.378;2022-07-23T10:00:26;20.50;;;11.55;;
22565;SDS011;11449;51.330;19.378;2022-07-23T10:05:28;17.67;;;11.08;;
22565;SDS011;11449;51.330;19.378;2022-07-23T10:10:50;22.17;;;11.57;;
22565;SDS011;11449;51.330;19.378;2022-07-23T10:15:58;15.43;;;10.85;;
22565;SDS011;11449;51.330;19.378;2022-07-23T10:21:00;17.65;;;10.48;;
22565;SDS011;11449;51.330;19.378;2022-07-23T10:26:18;18.67;;;10.75;;
22565;SDS011;11449;51.330;19.378;2022-07-23T10:42:16;18.30;;;10.43;;
22565;SDS011;11449;51.330;19.378;2022-07-23T10:47:27;17.05;;;10.13;;
22565;SDS011;11449;51.330;19.378;2022-07-23T10:52:31;20.72;;;10.58;;
22565;SDS011;11449;51.330;19.378;2022-07-23T10:57:32;15.60;;;9.50;;
22565;SDS011;11449;51.330;19.378;2022-07-23T11:02:38;19.92;;;9.60;;
22565;SDS011;11449;51.330;19.378;2022-07-23T11:08:10;22.85;;;9.85;;
22565;SDS011;11449;51.330;19.378;2022-07-23T11:23:59;41.95;;;16.20;;
22565;SDS011;11449;51.330;19.378;2022-07-23T11:34:44;24.52;;;10.18;;
22565;SDS011;11449;51.330;19.378;2022-07-23T11:39:47;28.92;;;9.28;;
22565;SDS011;11449;51.330;19.378;2022-07-23T11:44:49;33.10;;;10.63;;
22565;SDS011;11449;51.330;19.378;2022-07-23T11:49:54;32.75;;;10.75;;
22565;SDS011;11449;51.330;19.378;2022-07-23T11:54:58;52.40;;;12.70;;
22565;SDS011;11449;51.330;19.378;2022-07-23T12:00:06;45.67;;;12.43;;
22565;SDS011;11449;51.330;19.378;2022-07-23T12:05:12;44.95;;;10.58;;
22565;SDS011;11449;51.330;19.378;2022-07-23T12:10:19;39.13;;;9.48;;
22565;SDS011;11449;51.330;19.378;2022-07-23T12:15:30;49.55;;;10.63;;
22565;SDS011;11449;51.330;19.378;2022-07-23T12:20:46;40.95;;;10.55;;
22565;SDS011;11449;51.330;19.378;2022-07-23T12:25:46;43.48;;;10.03;;
22565;SDS011;11449;51.330;19.378;2022-07-23T12:30:52;50.75;;;10.95;;
22565;SDS011;11449;51.330;19.378;2022-07-23T12:35:55;34.05;;;9.58;;
22565;SDS011;11449;51.330;19.378;2022-07-23T12:41:01;39.80;;;12.58;;
22565;SDS011;11449;51.330;19.378;2022-07-23T12:46:10;39.05;;;10.43;;
22565;SDS011;11449;51.330;19.378;2022-07-23T12:51:16;28.95;;;8.80;;
22565;SDS011;11449;51.330;19.378;2022-07-23T12:56:29;41.85;;;11.20;;
22565;SDS011;11449;51.330;19.378;2022-07-23T13:01:32;31.68;;;9.45;;
22565;SDS011;11449;51.330;19.378;2022-07-23T13:06:41;34.10;;;9.93;;
22565;SDS011;11449;51.330;19.378;2022-07-23T13:11:40;35.75;;;10.53;;
22565;SDS011;11449;51.330;19.378;2022-07-23T13:16:42;32.15;;;10.13;;
22565;SDS011;11449;51.330;19.378;2022-07-23T13:21:45;42.58;;;11.53;;
22565;SDS011;11449;51.330;19.378;2022-07-23T13:26:46;58.25;;;14.75;;
22565;SDS011;11449;51.330;19.378;2022-07-23T13:31:49;39.20;;;10.68;;
22565;SDS011;11449;51.330;19.378;2022-07-23T13:36:51;43.55;;;11.30;;
22565;SDS011;11449;51.330;19.378;2022-07-23T13:41:52;43.20;;;10.78;;
22565;SDS011;11449;51.330;19.378;2022-07-23T13:46:53;47.05;;;11.68;;
22565;SDS011;11449;51.330;19.378;2022-07-23T13:51:54;31.65;;;9.50;;
22565;SDS011;11449;51.330;19.378;2022-07-23T13:56:57;32.55;;;10.35;;
22565;SDS011;11449;51.330;19.378;2022-07-23T14:01:59;33.10;;;10.43;;
22565;SDS011;11449;51.330;19.378;2022-07-23T14:07:00;35.20;;;10.40;;
22565;SDS011;11449;51.330;19.378;2022-07-23T14:12:02;43.20;;;11.25;;
22565;SDS011;11449;51.330;19.378;2022-07-23T14:17:04;43.87;;;11.55;;
22565;SDS011;11449;51.330;19.378;2022-07-23T14:22:06;54.18;;;12.55;;
22565;SDS011;11449;51.330;19.378;2022-07-23T14:27:08;55.33;;;14.58;;
22565;SDS011;11449;51.330;19.378;2022-07-23T14:32:09;67.00;;;16.30;;
22565;SDS011;11449;51.330;19.378;2022-07-23T14:37:11;73.05;;;17.77;;
22565;SDS011;11449;51.330;19.378;2022-07-23T14:42:14;61.40;;;14.28;;
22565;SDS011;11449;51.330;19.378;2022-07-23T14:47:15;79.70;;;16.60;;
22565;SDS011;11449;51.330;19.378;2022-07-23T14:52:16;64.00;;;14.90;;
22565;SDS011;11449;51.330;19.378;2022-07-23T14:57:18;70.28;;;15.75;;
22565;SDS011;11449;51.330;19.378;2022-07-23T15:02:19;71.60;;;15.85;;
22565;SDS011;11449;51.330;19.378;2022-07-23T15:07:21;111.77;;;21.45;;
22565;SDS011;11449;51.330;19.378;2022-07-23T15:12:22;157.30;;;43.33;;
22565;SDS011;11449;51.330;19.378;2022-07-23T15:17:23;241.45;;;218.57;;
22565;SDS011;11449;51.330;19.378;2022-07-23T15:22:25;207.62;;;162.95;;
22565;SDS011;11449;51.330;19.378;2022-07-23T15:27:27;61.60;;;15.68;;
22565;SDS011;11449;51.330;19.378;2022-07-23T15:32:28;115.67;;;21.17;;
22565;SDS011;11449;51.330;19.378;2022-07-23T15:37:29;109.92;;;20.52;;
22565;SDS011;11449;51.330;19.378;2022-07-23T15:42:30;91.17;;;18.35;;
22565;SDS011;11449;51.330;19.378;2022-07-23T15:47:31;77.62;;;16.73;;
22565;SDS011;11449;51.330;19.378;2022-07-23T15:52:33;62.65;;;15.30;;
22565;SDS011;11449;51.330;19.378;2022-07-23T15:57:34;81.25;;;17.50;;
22565;SDS011;11449;51.330;19.378;2022-07-23T16:02:36;114.52;;;22.48;;
22565;SDS011;11449;51.330;19.378;2022-07-23T16:07:37;103.95;;;19.07;;
22565;SDS011;11449;51.330;19.378;2022-07-23T16:12:38;83.27;;;17.55;;
22565;SDS011;11449;51.330;19.378;2022-07-23T16:17:40;114.35;;;19.50;;
22565;SDS011;11449;51.330;19.378;2022-07-23T16:22:41;83.85;;;16.60;;
22565;SDS011;11449;51.330;19.378;2022-07-23T16:27:43;76.90;;;15.58;;
22565;SDS011;11449;51.330;19.378;2022-07-23T16:32:44;97.88;;;19.77;;
22565;SDS011;11449;51.330;19.378;2022-07-23T16:37:45;92.57;;;17.27;;
22565;SDS011;11449;51.330;19.378;2022-07-23T16:42:47;80.83;;;15.72;;
22565;SDS011;11449;51.330;19.378;2022-07-23T16:47:48;94.52;;;18.40;;
22565;SDS011;11449;51.330;19.378;2022-07-23T16:52:50;76.60;;;14.50;;
22565;SDS011;11449;51.330;19.378;2022-07-23T16:57:51;75.90;;;15.25;;
22565;SDS011;11449;51.330;19.378;2022-07-23T17:02:52;81.30;;;14.87;;
22565;SDS011;11449;51.330;19.378;2022-07-23T17:07:53;97.27;;;17.32;;
22565;SDS011;11449;51.330;19.378;2022-07-23T17:12:54;131.55;;;19.77;;
22565;SDS011;11449;51.330;19.378;2022-07-23T17:17:58;111.12;;;18.20;;
22565;SDS011;11449;51.330;19.378;2022-07-23T17:22:59;103.42;;;17.23;;
22565;SDS011;11449;51.330;19.378;2022-07-23T17:28:00;73.42;;;14.35;;
22565;SDS011;11449;51.330;19.378;2022-07-23T17:33:03;70.62;;;12.88;;
22565;SDS011;11449;51.330;19.378;2022-07-23T17:38:04;86.28;;;14.15;;
22565;SDS011;11449;51.330;19.378;2022-07-23T17:43:06;96.10;;;15.70;;
22565;SDS011;11449;51.330;19.378;2022-07-23T17:48:07;98.35;;;16.10;;
22565;SDS011;11449;51.330;19.378;2022-07-23T17:53:08;66.92;;;14.93;;
22565;SDS011;11449;51.330;19.378;2022-07-23T17:58:10;94.25;;;15.83;;
22565;SDS011;11449;51.330;19.378;2022-07-23T18:03:11;99.47;;;16.60;;
22565;SDS011;11449;51.330;19.378;2022-07-23T18:08:12;101.65;;;17.92;;
22565;SDS011;11449;51.330;19.378;2022-07-23T18:13:14;100.18;;;17.80;;
22565;SDS011;11449;51.330;19.378;2022-07-23T18:18:15;90.62;;;20.57;;
22565;SDS011;11449;51.330;19.378;2022-07-23T18:23:16;72.27;;;15.23;;
22565;SDS011;11449;51.330;19.378;2022-07-23T18:28:18;64.75;;;14.68;;
22565;SDS011;11449;51.330;19.378;2022-07-23T18:33:19;64.70;;;14.87;;
22565;SDS011;11449;51.330;19.378;2022-07-23T18:38:20;66.10;;;15.25;;
22565;SDS011;11449;51.330;19.378;2022-07-23T18:43:22;78.55;;;17.00;;
22565;SDS011;11449;51.330;19.378;2022-07-23T18:48:24;89.20;;;18.77;;
22565;SDS011;11449;51.330;19.378;2022-07-23T18:53:25;87.45;;;17.82;;
22565;SDS011;11449;51.330;19.378;2022-07-23T18:58:26;64.37;;;18.07;;
22565;SDS011;11449;51.330;19.378;2022-07-23T19:03:27;79.95;;;19.42;;
22565;SDS011;11449;51.330;19.378;2022-07-23T19:08:29;87.27;;;19.25;;
22565;SDS011;11449;51.330;19.378;2022-07-23T19:13:31;71.67;;;16.42;;
22565;SDS011;11449;51.330;19.378;2022-07-23T19:18:33;80.38;;;16.67;;
22565;SDS011;11449;51.330;19.378;2022-07-23T19:23:34;161.80;;;23.00;;
22565;SDS011;11449;51.330;19.378;2022-07-23T19:28:35;66.02;;;15.63;;
22565;SDS011;11449;51.330;19.378;2022-07-23T19:33:36;92.55;;;18.62;;
22565;SDS011;11449;51.330;19.378;2022-07-23T19:38:38;85.75;;;18.00;;
22565;SDS011;11449;51.330;19.378;2022-07-23T19:43:39;68.52;;;17.42;;
22565;SDS011;11449;51.330;19.378;2022-07-23T19:48:40;69.75;;;17.07;;
22565;SDS011;11449;51.330;19.378;2022-07-23T19:53:42;67.25;;;16.48;;
22565;SDS011;11449;51.330;19.378;2022-07-23T19:58:43;79.72;;;18.35;;
22565;SDS011;11449;51.330;19.378;2022-07-23T20:03:44;115.90;;;21.00;;
22565;SDS011;11449;51.330;19.378;2022-07-23T20:08:46;96.32;;;20.35;;
22565;SDS011;11449;51.330;19.378;2022-07-23T20:13:47;77.67;;;19.77;;
22565;SDS011;11449;51.330;19.378;2022-07-23T20:18:48;98.92;;;23.47;;
22565;SDS011;11449;51.330;19.378;2022-07-23T20:23:49;137.30;;;24.65;;
22565;SDS011;11449;51.330;19.378;2022-07-23T20:28:51;108.03;;;22.70;;
22565;SDS011;11449;51.330;19.378;2022-07-23T20:33:53;101.60;;;23.07;;
22565;SDS011;11449;51.330;19.378;2022-07-23T20:38:54;70.85;;;19.05;;
22565;SDS011;11449;51.330;19.378;2022-07-23T20:43:56;60.08;;;16.90;;
22565;SDS011;11449;51.330;19.378;2022-07-23T20:48:57;85.30;;;18.85;;
22565;SDS011;11449;51.330;19.378;2022-07-23T20:53:58;108.80;;;23.07;;
22565;SDS011;11449;51.330;19.378;2022-07-23T20:59:00;87.22;;;20.15;;
22565;SDS011;11449;51.330;19.378;2022-07-23T21:04:01;98.10;;;21.70;;
22565;SDS011;11449;51.330;19.378;2022-07-23T21:09:03;111.40;;;23.42;;
22565;SDS011;11449;51.330;19.378;2022-07-23T21:14:04;95.32;;;22.35;;
22565;SDS011;11449;51.330;19.378;2022-07-23T21:19:05;63.75;;;20.25;;
22565;SDS011;11449;51.330;19.378;2022-07-23T21:24:07;74.27;;;20.85;;
22565;SDS011;11449;51.330;19.378;2022-07-23T21:29:08;86.57;;;20.52;;
22565;SDS011;11449;51.330;19.378;2022-07-23T21:34:09;124.15;;;25.90;;
22565;SDS011;11449;51.330;19.378;2022-07-23T21:39:10;104.23;;;21.77;;
22565;SDS011;11449;51.330;19.378;2022-07-23T21:44:12;108.47;;;23.42;;
22565;SDS011;11449;51.330;19.378;2022-07-23T21:49:13;73.95;;;20.02;;
22565;SDS011;11449;51.330;19.378;2022-07-23T21:54:14;70.57;;;20.70;;
22565;SDS011;11449;51.330;19.378;2022-07-23T21:59:15;82.95;;;19.77;;
22565;SDS011;11449;51.330;19.378;2022-07-23T22:04:17;69.72;;;17.65;;
22565;SDS011;11449;51.330;19.378;2022-07-23T22:09:18;75.12;;;19.27;;
22565;SDS011;11449;51.330;19.378;2022-07-23T22:14:19;79.22;;;19.05;;
22565;SDS011;11449;51.330;19.378;2022-07-23T22:19:21;87.08;;;20.45;;
22565;SDS011;11449;51.330;19.378;2022-07-23T22:24:22;77.10;;;19.77;;
22565;SDS011;11449;51.330;19.378;2022-07-23T22:29:23;68.33;;;18.90;;
22565;SDS011;11449;51.330;19.378;2022-07-23T22:34:24;75.08;;;20.17;;
22565;SDS011;11449;51.330;19.378;2022-07-23T22:39:25;78.35;;;22.95;;
22565;SDS011;11449;51.330;19.378;2022-07-23T22:44:27;79.50;;;21.40;;
22565;SDS011;11449;51.330;19.378;2022-07-23T22:49:28;72.03;;;23.38;;
22565;SDS011;11449;51.330;19.378;2022-07-23T22:54:29;76.47;;;23.10;;
22565;SDS011;11449;51.330;19.378;2022-07-23T22:59:31;75.03;;;22.55;;
22565;SDS011;11449;51.330;19.378;2022-07-23T23:04:32;84.67;;;26.95;;
22565;SDS011;11449;51.330;19.378;2022-07-23T23:09:33;63.87;;;23.05;;
22565;SDS011;11449;51.330;19.378;2022-07-23T23:14:34;59.33;;;22.27;;
22565;SDS011;11449;51.330;19.378;2022-07-23T23:19:36;63.35;;;22.90;;
22565;SDS011;11449;51.330;19.378;2022-07-23T23:24:37;76.00;;;24.75;;
22565;SDS011;11449;51.330;19.378;2022-07-23T23:29:39;63.65;;;24.05;;
22565;SDS011;11449;51.330;19.378;2022-07-23T23:34:40;57.73;;;24.57;;
22565;SDS011;11449;51.330;19.378;2022-07-23T23:39:42;60.70;;;24.00;;
22565;SDS011;11449;51.330;19.378;2022-07-23T23:44:43;78.22;;;25.70;;
22565;SDS011;11449;51.330;19.378;2022-07-23T23:49:44;55.80;;;23.55;;
22565;SDS011;11449;51.330;19.378;2022-07-23T23:54:45;79.82;;;25.25;;
22565;SDS011;11449;51.330;19.378;2022-07-23T23:59:46;70.67;;;24.07;;
